createdAt,value
2023-05-18T00:01:17.078Z,6.82
2023-05-18T00:03:43.971Z,6.82
2023-05-18T00:06:10.844Z,6.80
2023-05-18T00:08:38.621Z,6.77
2023-05-18T00:11:07.501Z,6.77
2023-05-18T00:13:34.168Z,6.76
2023-05-18T00:16:01.348Z,6.77
2023-05-18T00:18:28.550Z,6.76
2023-05-18T00:21:02.128Z,6.76
2023-05-18T00:23:31.094Z,6.72
2023-05-18T00:25:59.370Z,6.67
2023-05-18T00:28:26.510Z,6.62
2023-05-18T00:30:54.259Z,6.57
2023-05-18T00:33:21.692Z,6.54
2023-05-18T00:35:48.529Z,6.51
2023-05-18T00:38:15.676Z,6.48
2023-05-18T00:40:42.702Z,6.44
2023-05-18T00:43:09.879Z,6.37
2023-05-18T00:45:36.806Z,6.33
2023-05-18T00:48:03.815Z,6.28
2023-05-18T00:50:30.903Z,6.25
2023-05-18T00:52:57.873Z,6.21
2023-05-18T00:55:24.587Z,6.17
2023-05-18T00:57:51.843Z,6.13
2023-05-18T01:00:20.725Z,6.12
2023-05-18T01:02:47.497Z,6.10
2023-05-18T01:05:14.411Z,6.10
2023-05-18T01:07:45.114Z,6.10
2023-05-18T01:10:13.517Z,6.09
2023-05-18T01:12:51.129Z,6.07
2023-05-18T01:15:27.076Z,6.07
2023-05-18T01:18:10.541Z,6.05
2023-05-18T01:20:46.612Z,6.02
2023-05-18T01:23:41.647Z,5.98
2023-05-18T01:26:32.850Z,5.94
2023-05-18T01:29:02.922Z,5.88
2023-05-18T01:31:30.411Z,5.85
2023-05-18T01:33:57.274Z,5.82
2023-05-18T01:36:24.023Z,5.81
2023-05-18T01:38:51.527Z,5.79
2023-05-18T01:41:22.949Z,5.77
2023-05-18T01:43:59.110Z,5.78
2023-05-18T01:46:54.477Z,5.80
2023-05-18T01:49:30.935Z,5.82
2023-05-18T01:52:04.541Z,5.84
2023-05-18T01:54:33.582Z,5.83
2023-05-18T01:57:01.346Z,5.79
2023-05-18T01:59:28.378Z,5.78
2023-05-18T02:01:59.923Z,5.75
2023-05-18T02:04:27.900Z,5.71
2023-05-18T02:06:55.422Z,5.68
2023-05-18T02:09:22.929Z,5.65
2023-05-18T02:11:49.676Z,5.64
2023-05-18T02:14:16.541Z,5.61
2023-05-18T02:16:47.210Z,5.61
2023-05-18T02:19:15.041Z,5.57
2023-05-18T02:21:43.599Z,5.58
2023-05-18T02:24:10.813Z,5.56
2023-05-18T02:26:37.803Z,5.57
2023-05-18T02:29:06.633Z,5.56
2023-05-18T02:31:33.416Z,5.56
2023-05-18T02:34:00.200Z,5.56
2023-05-18T02:36:26.944Z,5.55
2023-05-18T02:38:53.657Z,5.54
2023-05-18T02:41:21.156Z,5.52
2023-05-18T02:43:47.879Z,5.49
2023-05-18T02:46:14.635Z,5.47
2023-05-18T02:48:45.655Z,5.51
2023-05-18T02:51:12.818Z,5.53
2023-05-18T02:53:40.131Z,5.54
2023-05-18T02:56:07.041Z,5.50
2023-05-18T02:58:33.736Z,5.45
2023-05-18T03:01:00.588Z,5.43
2023-05-18T03:03:27.330Z,5.41
2023-05-18T03:05:54.032Z,5.38
2023-05-18T03:08:22.853Z,5.35
2023-05-18T03:10:50.454Z,5.37
2023-05-18T03:13:17.336Z,5.38
2023-05-18T03:15:45.596Z,5.39
2023-05-18T03:18:12.776Z,5.41
2023-05-18T03:20:39.524Z,5.43
2023-05-18T03:23:06.302Z,5.47
2023-05-18T03:25:33.014Z,5.50
2023-05-18T03:27:59.761Z,5.51
2023-05-18T03:30:26.466Z,5.54
2023-05-18T03:32:53.364Z,5.55
2023-05-18T03:35:20.116Z,5.58
2023-05-18T03:37:46.835Z,5.61
2023-05-18T03:40:15.692Z,5.64
2023-05-18T03:42:43.173Z,5.68
2023-05-18T03:45:10.794Z,5.72
2023-05-18T03:47:38.398Z,5.79
2023-05-18T03:50:06.208Z,5.84
2023-05-18T03:52:34.310Z,5.89
2023-05-18T03:55:02.076Z,5.91
2023-05-18T03:57:29.627Z,5.94
2023-05-18T03:59:57.136Z,5.99
2023-05-18T04:02:24.754Z,6.01
2023-05-18T04:04:54.145Z,6.02
2023-05-18T04:07:24.413Z,6.05
2023-05-18T04:09:52.300Z,6.07
2023-05-18T04:12:19.037Z,6.09
2023-05-18T04:14:49.640Z,6.11
2023-05-18T04:17:23.099Z,6.15
2023-05-18T04:19:50.330Z,6.22
2023-05-18T04:22:17.540Z,6.25
2023-05-18T04:24:47.420Z,6.26
2023-05-18T04:27:15.314Z,6.27
2023-05-18T04:29:43.930Z,6.28
2023-05-18T04:32:10.920Z,6.27
2023-05-18T04:34:38.275Z,6.26
2023-05-18T04:37:05.911Z,6.28
2023-05-18T04:39:35.408Z,6.31
2023-05-18T04:42:04.620Z,6.31
2023-05-18T04:44:34.877Z,6.33
2023-05-18T04:47:01.664Z,6.33
2023-05-18T04:49:28.450Z,6.33
2023-05-18T04:51:56.852Z,6.35
2023-05-18T04:54:31.003Z,6.37
2023-05-18T04:56:59.119Z,6.41
2023-05-18T04:59:26.460Z,6.45
2023-05-18T05:01:53.997Z,6.46
2023-05-18T05:04:24.010Z,6.48
2023-05-18T05:06:50.969Z,6.52
2023-05-18T05:09:18.063Z,6.51
2023-05-18T05:11:44.829Z,6.50
2023-05-18T05:14:11.575Z,6.51
2023-05-18T05:16:39.154Z,6.51
2023-05-18T05:19:06.202Z,6.52
2023-05-18T05:21:32.948Z,6.55
2023-05-18T05:24:01.653Z,6.58
2023-05-18T05:26:28.337Z,6.64
2023-05-18T05:28:54.994Z,6.70
2023-05-18T05:31:21.685Z,6.75
2023-05-18T05:33:48.452Z,6.79
2023-05-18T05:36:15.122Z,6.79
2023-05-18T05:38:42.304Z,6.80
2023-05-18T05:41:09.061Z,6.80
2023-05-18T05:43:35.904Z,6.85
2023-05-18T05:46:02.973Z,6.91
2023-05-18T05:48:29.642Z,6.97
2023-05-18T05:50:56.808Z,7.05
2023-05-18T05:53:23.637Z,7.07
2023-05-18T05:55:50.499Z,7.11
2023-05-18T05:58:18.236Z,7.17
2023-05-18T06:00:47.186Z,7.21
2023-05-18T06:03:13.959Z,7.24
2023-05-18T06:05:40.727Z,7.27
2023-05-18T06:08:07.443Z,7.31
2023-05-18T06:10:34.352Z,7.35
2023-05-18T06:13:01.121Z,7.37
2023-05-18T06:15:28.180Z,7.44
2023-05-18T06:17:55.182Z,7.48
2023-05-18T06:20:22.047Z,7.53
2023-05-18T06:22:48.861Z,7.56
2023-05-18T06:25:15.850Z,7.60
2023-05-18T06:27:44.466Z,7.59
2023-05-18T06:30:11.683Z,7.62
2023-05-18T06:32:38.533Z,7.67
2023-05-18T06:35:06.364Z,7.75
2023-05-18T06:37:33.707Z,7.82
2023-05-18T06:40:00.453Z,7.87
2023-05-18T06:42:27.181Z,7.89
2023-05-18T06:44:54.008Z,7.90
2023-05-18T06:47:20.726Z,7.92
2023-05-18T06:49:47.512Z,7.91
2023-05-18T06:52:14.279Z,7.96
2023-05-18T06:54:41.078Z,8.04
2023-05-18T06:57:07.845Z,8.08
2023-05-18T06:59:35.053Z,8.09
2023-05-18T07:02:01.857Z,8.13
2023-05-18T07:04:28.681Z,8.19
2023-05-18T07:06:56.203Z,8.26
2023-05-18T07:09:23.782Z,8.26
2023-05-18T07:11:50.528Z,8.28
2023-05-18T07:14:17.296Z,8.33
2023-05-18T07:16:47.138Z,8.39
2023-05-18T07:19:14.648Z,8.39
2023-05-18T07:21:41.472Z,8.42
2023-05-18T07:24:08.252Z,8.45
2023-05-18T07:26:35.080Z,8.52
2023-05-18T07:29:02.014Z,8.60
2023-05-18T07:31:28.823Z,8.60
2023-05-18T07:33:55.619Z,8.58
2023-05-18T07:36:22.372Z,8.61
2023-05-18T07:38:55.027Z,8.71
2023-05-18T07:41:26.257Z,8.80
2023-05-18T07:43:53.001Z,8.79
2023-05-18T07:46:20.078Z,8.82
2023-05-18T07:48:46.804Z,8.88
2023-05-18T07:51:13.597Z,8.97
2023-05-18T07:53:41.621Z,9.04
2023-05-18T07:56:09.339Z,9.07
2023-05-18T07:58:36.801Z,9.09
2023-05-18T08:01:03.678Z,9.12
2023-05-18T08:03:30.572Z,9.17
2023-05-18T08:05:57.358Z,9.21
2023-05-18T08:08:24.471Z,9.29
2023-05-18T08:10:52.299Z,9.39
2023-05-18T08:13:19.529Z,9.51
2023-05-18T08:15:50.896Z,9.60
2023-05-18T08:18:23.100Z,9.63
2023-05-18T08:20:49.818Z,9.70
2023-05-18T08:23:16.492Z,9.73
2023-05-18T08:25:43.197Z,9.80
2023-05-18T08:28:09.880Z,9.84
2023-05-18T08:30:36.616Z,9.87
2023-05-18T08:33:03.528Z,9.88
2023-05-18T08:35:30.743Z,9.92
2023-05-18T08:37:57.661Z,9.93
2023-05-18T08:40:32.782Z,9.93
2023-05-18T08:43:07.497Z,9.91
2023-05-18T08:45:58.926Z,9.85
2023-05-18T08:48:28.645Z,9.91
2023-05-18T08:50:58.485Z,10.02
2023-05-18T08:53:26.006Z,10.11
2023-05-18T08:55:54.641Z,10.17
2023-05-18T08:58:32.709Z,10.18
2023-05-18T09:00:59.491Z,10.24
2023-05-18T09:03:26.540Z,10.26
2023-05-18T09:05:53.688Z,10.28
2023-05-18T09:08:20.676Z,10.31
2023-05-18T09:10:48.789Z,10.39
2023-05-18T09:13:20.956Z,10.42
2023-05-18T09:15:47.916Z,10.42
2023-05-18T09:18:14.843Z,10.40
2023-05-18T09:20:41.664Z,10.40
2023-05-18T09:23:08.686Z,10.48
2023-05-18T09:25:42.727Z,10.54
2023-05-18T09:28:09.416Z,10.62
2023-05-18T09:30:43.546Z,10.80
2023-05-18T09:33:23.532Z,10.93
2023-05-18T09:35:51.955Z,11.08
2023-05-18T09:38:22.237Z,11.22
2023-05-18T09:40:50.831Z,11.31
2023-05-18T09:43:21.223Z,11.41
2023-05-18T09:45:51.182Z,11.39
2023-05-18T09:48:18.058Z,11.46
2023-05-18T09:50:45.987Z,11.57
2023-05-18T09:53:14.161Z,11.65
2023-05-18T09:55:49.301Z,11.73
2023-05-18T09:58:16.650Z,11.88
2023-05-18T10:00:54.100Z,12.08
2023-05-18T10:03:22.604Z,12.14
2023-05-18T10:05:49.920Z,12.20
2023-05-18T10:08:17.234Z,12.10
2023-05-18T10:10:49.721Z,12.06
2023-05-18T10:13:20.118Z,12.20
2023-05-18T10:15:48.908Z,12.26
2023-05-18T10:18:26.246Z,12.31
2023-05-18T10:20:55.553Z,12.39
2023-05-18T10:23:24.970Z,12.45
2023-05-18T10:25:52.692Z,12.52
2023-05-18T10:28:27.697Z,12.66
2023-05-18T10:30:58.232Z,12.79
2023-05-18T10:33:31.020Z,12.87
2023-05-18T10:35:58.533Z,12.85
2023-05-18T10:38:27.046Z,12.91
2023-05-18T10:40:56.226Z,13.00
2023-05-18T10:43:27.586Z,13.09
2023-05-18T10:46:00.004Z,13.10
2023-05-18T10:48:29.359Z,13.04
2023-05-18T10:50:57.852Z,12.94
2023-05-18T10:53:32.399Z,13.01
2023-05-18T10:55:59.812Z,13.15
2023-05-18T10:58:28.409Z,13.32
2023-05-18T11:01:05.137Z,13.41
2023-05-18T11:03:32.975Z,13.56
2023-05-18T11:06:11.243Z,13.72
2023-05-18T11:08:47.972Z,13.74
2023-05-18T11:11:17.953Z,13.68
2023-05-18T11:13:49.345Z,13.69
2023-05-18T11:16:17.275Z,13.77
2023-05-18T11:18:49.786Z,13.86
2023-05-18T11:21:35.919Z,14.10
2023-05-18T11:24:32.529Z,14.38
2023-05-18T11:27:16.380Z,14.41
2023-05-18T11:29:48.398Z,14.48
2023-05-18T11:32:31.353Z,14.61
2023-05-18T11:34:59.109Z,14.74
2023-05-18T11:37:45.013Z,14.91
2023-05-18T11:40:13.871Z,15.12
2023-05-18T11:42:40.764Z,15.24
2023-05-18T11:45:08.391Z,15.28
2023-05-18T11:47:36.826Z,15.42
2023-05-18T11:50:07.155Z,15.57
2023-05-18T11:52:33.997Z,15.65
2023-05-18T11:55:01.242Z,15.72
2023-05-18T11:57:36.759Z,15.78
2023-05-18T12:00:13.142Z,15.95
2023-05-18T12:02:44.424Z,15.98
2023-05-18T12:05:11.741Z,15.96
2023-05-18T12:07:40.194Z,15.97
2023-05-18T12:10:17.643Z,16.08
2023-05-18T12:12:49.410Z,16.24
2023-05-18T12:15:17.449Z,16.37
2023-05-18T12:17:46.547Z,16.58
2023-05-18T12:20:18.390Z,16.82
2023-05-18T12:22:47.096Z,17.12
2023-05-18T12:25:13.926Z,17.34
2023-05-18T12:27:42.724Z,17.36
2023-05-18T12:30:12.359Z,17.24
2023-05-18T12:32:39.801Z,17.37
2023-05-18T12:35:08.877Z,17.47
2023-05-18T12:37:46.060Z,17.68
2023-05-18T12:40:14.774Z,17.79
2023-05-18T12:42:54.607Z,17.84
2023-05-18T12:45:29.197Z,18.04
2023-05-18T12:47:56.312Z,18.31
2023-05-18T12:50:25.677Z,18.55
2023-05-18T12:52:52.519Z,18.63
2023-05-18T12:55:22.027Z,18.44
2023-05-18T12:58:03.201Z,18.32
2023-05-18T13:00:34.882Z,18.32
2023-05-18T13:03:11.692Z,18.21
2023-05-18T13:05:45.526Z,17.92
2023-05-18T13:08:21.797Z,17.67
2023-05-18T13:10:58.080Z,17.73
2023-05-18T13:13:32.708Z,17.96
2023-05-18T13:16:03.192Z,18.12
2023-05-18T13:18:29.934Z,18.27
2023-05-18T13:20:58.574Z,18.51
2023-05-18T13:23:29.623Z,18.72
2023-05-18T13:25:58.758Z,18.73
2023-05-18T13:28:26.682Z,18.73
2023-05-18T13:30:53.521Z,18.94
2023-05-18T13:33:20.271Z,19.11
2023-05-18T13:35:47.080Z,19.04
2023-05-18T13:38:14.968Z,18.95
2023-05-18T13:40:42.461Z,18.95
2023-05-18T13:43:11.256Z,19.09
2023-05-18T13:45:40.236Z,19.39
2023-05-18T13:48:10.835Z,19.74
2023-05-18T13:50:38.478Z,20.02
2023-05-18T13:53:05.250Z,20.19
2023-05-18T13:55:33.298Z,20.20
2023-05-18T13:58:00.209Z,20.25
2023-05-18T14:00:26.930Z,20.48
2023-05-18T14:02:53.857Z,20.56
2023-05-18T14:05:21.003Z,20.57
2023-05-18T14:07:47.751Z,20.57
2023-05-18T14:10:14.562Z,20.76
2023-05-18T14:12:42.845Z,20.85
2023-05-18T14:15:10.488Z,20.78
2023-05-18T14:17:38.401Z,20.59
2023-05-18T14:20:06.209Z,20.57
2023-05-18T14:22:33.264Z,20.64
2023-05-18T14:25:01.018Z,20.80
2023-05-18T14:27:28.484Z,21.05
2023-05-18T14:29:55.634Z,21.21
2023-05-18T14:32:22.490Z,21.32
2023-05-18T14:34:52.115Z,21.35
2023-05-18T14:37:19.287Z,21.46
2023-05-18T14:39:46.231Z,21.50
2023-05-18T14:42:13.114Z,21.46
2023-05-18T14:44:39.809Z,21.22
2023-05-18T14:47:06.794Z,21.16
2023-05-18T14:49:33.676Z,21.19
2023-05-18T14:52:00.547Z,21.21
2023-05-18T14:54:27.259Z,21.20
2023-05-18T14:56:54.067Z,21.22
2023-05-18T14:59:21.509Z,21.41
2023-05-18T15:01:48.268Z,21.56
2023-05-18T15:04:15.289Z,21.40
2023-05-18T15:06:42.084Z,21.17
2023-05-18T15:09:09.529Z,21.10
2023-05-18T15:11:36.247Z,21.20
2023-05-18T15:14:02.916Z,21.18
2023-05-18T15:16:29.725Z,21.07
2023-05-18T15:18:56.626Z,21.11
2023-05-18T15:21:23.348Z,21.22
2023-05-18T15:23:50.003Z,21.39
2023-05-18T15:26:16.749Z,21.67
2023-05-18T15:28:45.109Z,21.80
2023-05-18T15:31:12.041Z,21.87
2023-05-18T15:33:42.376Z,22.00
2023-05-18T15:36:09.855Z,22.19
2023-05-18T15:38:36.668Z,22.30
2023-05-18T15:41:03.694Z,22.33
2023-05-18T15:43:31.136Z,22.37
2023-05-18T15:45:58.864Z,22.52
2023-05-18T15:48:25.832Z,22.41
2023-05-18T15:50:52.575Z,22.38
2023-05-18T15:53:19.231Z,22.65
2023-05-18T15:55:46.149Z,22.99
2023-05-18T15:58:16.234Z,23.18
2023-05-18T16:00:42.987Z,23.13
2023-05-18T16:03:09.750Z,23.14
2023-05-18T16:05:36.571Z,23.29
2023-05-18T16:08:03.230Z,23.42
2023-05-18T16:10:31.350Z,23.28
2023-05-18T16:13:05.628Z,22.86
2023-05-18T16:15:36.896Z,22.56
2023-05-18T16:18:03.878Z,22.67
2023-05-18T16:20:31.055Z,22.98
2023-05-18T16:22:58.508Z,23.10
2023-05-18T16:25:26.381Z,23.32
2023-05-18T16:27:53.053Z,23.52
2023-05-18T16:30:19.804Z,23.59
2023-05-18T16:32:46.586Z,23.69
2023-05-18T16:35:13.333Z,23.73
2023-05-18T16:37:40.030Z,23.62
2023-05-18T16:40:08.276Z,23.45
2023-05-18T16:42:35.728Z,23.49
2023-05-18T16:45:03.327Z,23.60
2023-05-18T16:47:32.686Z,23.62
2023-05-18T16:50:00.414Z,23.58
2023-05-18T16:52:27.504Z,23.43
2023-05-18T16:54:54.265Z,23.32
2023-05-18T16:57:21.193Z,23.34
2023-05-18T16:59:48.187Z,23.47
2023-05-18T17:02:15.829Z,23.58
2023-05-18T17:04:42.959Z,23.51
2023-05-18T17:07:09.974Z,23.20
2023-05-18T17:09:40.098Z,22.88
2023-05-18T17:12:07.980Z,22.79
2023-05-18T17:14:34.755Z,22.79
2023-05-18T17:17:01.629Z,22.82
2023-05-18T17:19:28.450Z,22.75
2023-05-18T17:21:55.248Z,22.76
2023-05-18T17:24:22.453Z,22.98
2023-05-18T17:26:49.349Z,23.23
2023-05-18T17:29:18.015Z,23.41
2023-05-18T17:31:46.461Z,23.49
2023-05-18T17:34:13.274Z,23.48
2023-05-18T17:36:40.108Z,23.48
2023-05-18T17:39:06.917Z,23.48
2023-05-18T17:41:34.449Z,23.48
2023-05-18T17:44:02.720Z,23.30
2023-05-18T17:46:29.525Z,23.09
2023-05-18T17:48:56.401Z,22.98
2023-05-18T17:51:25.129Z,22.89
2023-05-18T17:53:51.917Z,22.81
2023-05-18T17:56:18.788Z,22.85
2023-05-18T17:58:45.905Z,22.87
2023-05-18T18:01:12.645Z,22.81
2023-05-18T18:03:39.681Z,22.66
2023-05-18T18:06:07.847Z,22.56
2023-05-18T18:08:34.612Z,22.38
2023-05-18T18:11:01.335Z,22.21
2023-05-18T18:13:28.177Z,21.93
2023-05-18T18:15:54.896Z,21.67
2023-05-18T18:18:22.151Z,21.41
2023-05-18T18:20:49.055Z,21.07
2023-05-18T18:23:15.824Z,20.75
2023-05-18T18:25:44.160Z,20.49
2023-05-18T18:28:15.165Z,20.21
2023-05-18T18:30:44.565Z,19.83
2023-05-18T18:33:11.875Z,19.46
2023-05-18T18:35:38.768Z,19.14
2023-05-18T18:38:05.588Z,18.87
2023-05-18T18:40:33.406Z,18.57
2023-05-18T18:43:00.251Z,18.31
2023-05-18T18:45:29.148Z,18.06
2023-05-18T18:47:55.908Z,17.81
2023-05-18T18:50:22.749Z,17.60
2023-05-18T18:52:49.523Z,17.39
2023-05-18T18:55:17.138Z,17.17
2023-05-18T18:57:44.525Z,16.96
2023-05-18T19:00:11.807Z,16.75
2023-05-18T19:02:38.896Z,16.59
2023-05-18T19:05:06.238Z,16.41
2023-05-18T19:07:33.407Z,16.24
2023-05-18T19:10:00.260Z,16.07
2023-05-18T19:12:26.978Z,15.94
2023-05-18T19:14:53.698Z,15.80
2023-05-18T19:17:20.485Z,15.65
2023-05-18T19:19:47.258Z,15.56
2023-05-18T19:22:14.627Z,15.45
2023-05-18T19:24:41.824Z,15.35
2023-05-18T19:27:08.549Z,15.25
2023-05-18T19:29:37.481Z,15.12
2023-05-18T19:32:05.711Z,15.02
2023-05-18T19:34:32.474Z,14.92
2023-05-18T19:36:59.221Z,14.84
2023-05-18T19:39:25.958Z,14.80
2023-05-18T19:41:52.676Z,14.75
2023-05-18T19:44:19.354Z,14.67
2023-05-18T19:46:46.029Z,14.62
2023-05-18T19:49:12.729Z,14.58
2023-05-18T19:51:39.387Z,14.50
2023-05-18T19:54:06.047Z,14.41
2023-05-18T19:56:32.801Z,14.33
2023-05-18T19:58:59.490Z,14.25
2023-05-18T20:01:26.284Z,14.16
2023-05-18T20:03:53.097Z,14.09
2023-05-18T20:06:19.987Z,14.01
2023-05-18T20:08:46.754Z,13.93
2023-05-18T20:11:14.793Z,13.86
2023-05-18T20:13:43.868Z,13.81
2023-05-18T20:16:10.686Z,13.74
2023-05-18T20:18:40.009Z,13.69
2023-05-18T20:21:08.737Z,13.66
2023-05-18T20:23:35.419Z,13.62
2023-05-18T20:26:02.244Z,13.59
2023-05-18T20:28:31.502Z,13.55
2023-05-18T20:30:59.279Z,13.50
2023-05-18T20:33:26.609Z,13.45
2023-05-18T20:35:53.405Z,13.39
2023-05-18T20:38:20.132Z,13.28
2023-05-18T20:40:51.087Z,13.20
2023-05-18T20:43:18.169Z,13.15
2023-05-18T20:45:49.328Z,13.09
2023-05-18T20:48:24.496Z,13.08
2023-05-18T20:50:52.340Z,12.99
2023-05-18T20:53:19.337Z,12.90
2023-05-18T20:55:49.943Z,12.85
2023-05-18T20:58:18.629Z,12.78
2023-05-18T21:00:46.643Z,12.68
2023-05-18T21:03:14.751Z,12.59
2023-05-18T21:05:42.156Z,12.50
2023-05-18T21:08:08.866Z,12.45
2023-05-18T21:10:35.912Z,12.37
2023-05-18T21:13:02.667Z,12.28
2023-05-18T21:15:29.822Z,12.25
2023-05-18T21:17:56.962Z,12.22
2023-05-18T21:20:23.719Z,12.16
2023-05-18T21:22:50.493Z,12.10
2023-05-18T21:25:17.882Z,12.03
2023-05-18T21:27:44.552Z,11.98
2023-05-18T21:30:13.017Z,11.95
2023-05-18T21:32:40.834Z,11.92
2023-05-18T21:35:07.827Z,11.85
2023-05-18T21:37:34.551Z,11.82
2023-05-18T21:40:01.472Z,11.76
2023-05-18T21:42:29.208Z,11.70
2023-05-18T21:44:55.866Z,11.66
2023-05-18T21:47:22.879Z,11.52
2023-05-18T21:49:49.584Z,11.55
2023-05-18T21:52:16.364Z,11.52
2023-05-18T21:54:43.186Z,11.49
2023-05-18T21:57:09.874Z,11.45
2023-05-18T21:59:36.704Z,11.38
2023-05-18T22:02:03.397Z,11.33
2023-05-18T22:04:30.176Z,11.27
2023-05-18T22:06:56.863Z,11.25
2023-05-18T22:09:23.621Z,11.19
2023-05-18T22:11:50.272Z,11.14
2023-05-18T22:14:18.200Z,11.06
2023-05-18T22:16:45.331Z,10.98
2023-05-18T22:19:12.110Z,10.94
2023-05-18T22:21:38.875Z,10.87
2023-05-18T22:24:06.051Z,10.86
2023-05-18T22:26:32.830Z,10.84
2023-05-18T22:28:59.597Z,10.81
2023-05-18T22:31:26.376Z,10.80
2023-05-18T22:33:54.061Z,10.79
2023-05-18T22:36:21.980Z,10.77
2023-05-18T22:38:49.830Z,10.73
2023-05-18T22:41:17.278Z,10.69
2023-05-18T22:43:43.952Z,10.66
2023-05-18T22:46:11.348Z,10.66
2023-05-18T22:48:38.157Z,10.67
2023-05-18T22:51:06.458Z,10.70
2023-05-18T22:53:33.498Z,10.71
2023-05-18T22:56:00.403Z,10.70
2023-05-18T22:58:27.102Z,10.67
2023-05-18T23:00:53.899Z,10.62
2023-05-18T23:03:20.604Z,10.62
2023-05-18T23:05:48.447Z,10.60
2023-05-18T23:08:16.152Z,10.59
2023-05-18T23:10:44.437Z,10.57
2023-05-18T23:13:12.031Z,10.54
2023-05-18T23:15:38.926Z,10.50
2023-05-18T23:18:09.530Z,10.48
2023-05-18T23:20:36.347Z,10.41
2023-05-18T23:23:03.059Z,10.33
2023-05-18T23:25:30.084Z,10.26
2023-05-18T23:27:56.938Z,10.22
2023-05-18T23:30:23.839Z,10.19
2023-05-18T23:32:50.932Z,10.12
2023-05-18T23:35:18.308Z,10.04
2023-05-18T23:37:48.434Z,9.99
2023-05-18T23:40:17.911Z,9.97
2023-05-18T23:42:48.074Z,9.98
2023-05-18T23:45:15.737Z,9.96
2023-05-18T23:47:42.672Z,9.92
2023-05-18T23:50:10.010Z,9.88
2023-05-18T23:52:37.270Z,9.85
2023-05-18T23:55:05.158Z,9.84
2023-05-18T23:57:33.152Z,9.80
